sensor_id;sensor_type;location;lat;lon;timestamp;pressure;altitude;pressure_sealevel;temperature;humidity
28921;BME280;16035;53.594;9.952;2024-03-08T00:00:00;102373.78;;;3.96;64.81
28921;BME280;16035;53.594;9.952;2024-03-08T00:02:09;102378.88;;;3.91;65.01
28921;BME280;16035;53.594;9.952;2024-03-08T00:04:09;102374.50;;;3.90;65.33
28921;BME280;16035;53.594;9.952;2024-03-08T00:06:10;102374.84;;;3.87;65.61
28921;BME280;16035;53.594;9.952;2024-03-08T00:08:10;102374.19;;;3.85;64.90
28921;BME280;16035;53.594;9.952;2024-03-08T00:10:12;102368.63;;;3.87;65.35
28921;BME280;16035;53.594;9.952;2024-03-08T00:12:13;102359.53;;;3.88;64.89
28921;BME280;16035;53.594;9.952;2024-03-08T00:14:13;102364.63;;;3.83;65.15
28921;BME280;16035;53.594;9.952;2024-03-08T00:16:13;102362.31;;;3.79;65.17
28921;BME280;16035;53.594;9.952;2024-03-08T00:18:13;102356.44;;;3.76;64.91
28921;BME280;16035;53.594;9.952;2024-03-08T00:20:14;102361.13;;;3.74;65.13
28921;BME280;16035;53.594;9.952;2024-03-08T00:22:15;102350.91;;;3.69;65.44
28921;BME280;16035;53.594;9.952;2024-03-08T00:24:16;102356.84;;;3.57;65.88
28921;BME280;16035;53.594;9.952;2024-03-08T00:26:16;102358.19;;;3.61;65.52
28921;BME280;16035;53.594;9.952;2024-03-08T00:28:17;102356.50;;;3.60;66.22
28921;BME280;16035;53.594;9.952;2024-03-08T00:30:19;102355.50;;;3.61;65.68
28921;BME280;16035;53.594;9.952;2024-03-08T00:32:19;102361.53;;;3.63;65.94
28921;BME280;16035;53.594;9.952;2024-03-08T00:34:19;102354.31;;;3.63;65.71
28921;BME280;16035;53.594;9.952;2024-03-08T00:36:20;102359.34;;;3.66;65.48
28921;BME280;16035;53.594;9.952;2024-03-08T00:38:20;102357.19;;;3.62;65.59
28921;BME280;16035;53.594;9.952;2024-03-08T00:40:20;102352.81;;;3.61;65.50
28921;BME280;16035;53.594;9.952;2024-03-08T00:42:21;102354.16;;;3.57;65.79
28921;BME280;16035;53.594;9.952;2024-03-08T00:44:21;102350.16;;;3.52;65.54
28921;BME280;16035;53.594;9.952;2024-03-08T00:46:21;102353.22;;;3.49;65.78
28921;BME280;16035;53.594;9.952;2024-03-08T00:48:22;102350.03;;;3.46;65.93
28921;BME280;16035;53.594;9.952;2024-03-08T00:50:22;102355.59;;;3.44;65.80
28921;BME280;16035;53.594;9.952;2024-03-08T00:52:23;102354.91;;;3.42;66.04
28921;BME280;16035;53.594;9.952;2024-03-08T00:54:24;102353.22;;;3.41;66.14
28921;BME280;16035;53.594;9.952;2024-03-08T00:56:24;102359.25;;;3.43;65.69
28921;BME280;16035;53.594;9.952;2024-03-08T00:58:25;102358.91;;;3.46;65.60
28921;BME280;16035;53.594;9.952;2024-03-08T01:00:25;102353.06;;;3.43;66.14
28921;BME280;16035;53.594;9.952;2024-03-08T01:02:26;102347.88;;;3.41;66.11
28921;BME280;16035;53.594;9.952;2024-03-08T01:04:26;102343.34;;;3.34;66.27
28921;BME280;16035;53.594;9.952;2024-03-08T01:06:29;102345.19;;;3.33;66.38
28921;BME280;16035;53.594;9.952;2024-03-08T01:08:29;102340.84;;;3.32;66.08
28921;BME280;16035;53.594;9.952;2024-03-08T01:10:29;102335.13;;;3.35;65.92
28921;BME280;16035;53.594;9.952;2024-03-08T01:12:30;102336.81;;;3.36;65.99
28921;BME280;16035;53.594;9.952;2024-03-08T01:14:30;102336.66;;;3.29;66.10
28921;BME280;16035;53.594;9.952;2024-03-08T01:16:31;102323.56;;;3.26;66.28
28921;BME280;16035;53.594;9.952;2024-03-08T01:18:33;102330.63;;;3.27;65.95
28921;BME280;16035;53.594;9.952;2024-03-08T01:20:33;102320.06;;;3.26;66.15
28921;BME280;16035;53.594;9.952;2024-03-08T01:22:34;102322.41;;;3.21;66.20
28921;BME280;16035;53.594;9.952;2024-03-08T01:24:34;102322.78;;;3.18;66.44
28921;BME280;16035;53.594;9.952;2024-03-08T01:26:35;102313.50;;;3.20;66.33
28921;BME280;16035;53.594;9.952;2024-03-08T01:28:35;102312.84;;;3.18;66.45
28921;BME280;16035;53.594;9.952;2024-03-08T01:30:36;102313.19;;;3.15;66.50
28921;BME280;16035;53.594;9.952;2024-03-08T01:32:37;102306.50;;;3.03;66.85
28921;BME280;16035;53.594;9.952;2024-03-08T01:34:38;102301.97;;;3.03;66.84
28921;BME280;16035;53.594;9.952;2024-03-08T01:36:38;102296.28;;;3.07;66.66
28921;BME280;16035;53.594;9.952;2024-03-08T01:38:39;102298.63;;;3.10;66.63
28921;BME280;16035;53.594;9.952;2024-03-08T01:40:39;102294.25;;;3.09;66.61
28921;BME280;16035;53.594;9.952;2024-03-08T01:42:41;102291.91;;;3.06;66.59
28921;BME280;16035;53.594;9.952;2024-03-08T01:44:41;102290.59;;;3.01;66.70
28921;BME280;16035;53.594;9.952;2024-03-08T01:46:47;102288.22;;;2.98;67.01
28921;BME280;16035;53.594;9.952;2024-03-08T01:48:49;102281.00;;;2.99;67.20
28921;BME280;16035;53.594;9.952;2024-03-08T01:50:51;102280.53;;;2.95;66.93
28921;BME280;16035;53.594;9.952;2024-03-08T01:52:53;102280.53;;;2.95;66.93
28921;BME280;16035;53.594;9.952;2024-03-08T01:54:53;102274.19;;;2.88;67.47
28921;BME280;16035;53.594;9.952;2024-03-08T01:56:54;102275.00;;;2.89;67.15
28921;BME280;16035;53.594;9.952;2024-03-08T01:58:54;102275.84;;;2.89;67.24
28921;BME280;16035;53.594;9.952;2024-03-08T02:00:56;102269.16;;;2.85;67.39
28921;BME280;16035;53.594;9.952;2024-03-08T02:02:58;102267.78;;;2.89;67.48
28921;BME280;16035;53.594;9.952;2024-03-08T02:05:00;102266.97;;;2.89;67.31
28921;BME280;16035;53.594;9.952;2024-03-08T02:07:00;102271.50;;;2.88;67.11
28921;BME280;16035;53.594;9.952;2024-03-08T02:09:01;102266.81;;;2.90;67.19
28921;BME280;16035;53.594;9.952;2024-03-08T02:11:06;102267.78;;;2.89;66.99
28921;BME280;16035;53.594;9.952;2024-03-08T02:13:06;102260.09;;;2.86;67.25
28921;BME280;16035;53.594;9.952;2024-03-08T02:15:06;102258.78;;;2.82;67.16
28921;BME280;16035;53.594;9.952;2024-03-08T02:17:07;102255.59;;;2.78;67.58
28921;BME280;16035;53.594;9.952;2024-03-08T02:19:07;102256.09;;;2.74;67.90
28921;BME280;16035;53.594;9.952;2024-03-08T02:21:09;102259.13;;;2.71;67.83
28921;BME280;16035;53.594;9.952;2024-03-08T02:23:10;102255.59;;;2.70;67.54
28921;BME280;16035;53.594;9.952;2024-03-08T02:25:10;102253.44;;;2.66;67.68
28921;BME280;16035;53.594;9.952;2024-03-08T02:27:11;102252.78;;;2.64;67.71
28921;BME280;16035;53.594;9.952;2024-03-08T02:29:12;102248.25;;;2.64;67.90
28921;BME280;16035;53.594;9.952;2024-03-08T02:31:13;102251.91;;;2.63;67.78
28921;BME280;16035;53.594;9.952;2024-03-08T02:33:14;102254.78;;;2.62;67.91
28921;BME280;16035;53.594;9.952;2024-03-08T02:35:18;102258.81;;;2.58;68.07
28921;BME280;16035;53.594;9.952;2024-03-08T02:37:18;102258.50;;;2.52;67.70
28921;BME280;16035;53.594;9.952;2024-03-08T02:39:19;102251.63;;;2.50;68.17
28921;BME280;16035;53.594;9.952;2024-03-08T02:41:20;102258.50;;;2.44;68.19
28921;BME280;16035;53.594;9.952;2024-03-08T02:43:21;102254.16;;;2.43;68.25
28921;BME280;16035;53.594;9.952;2024-03-08T02:45:24;102258.34;;;2.46;68.34
28921;BME280;16035;53.594;9.952;2024-03-08T02:47:25;102253.00;;;2.46;67.98
28921;BME280;16035;53.594;9.952;2024-03-08T02:49:26;102249.44;;;2.45;68.07
28921;BME280;16035;53.594;9.952;2024-03-08T02:51:28;102249.13;;;2.40;68.55
28921;BME280;16035;53.594;9.952;2024-03-08T02:53:29;102247.44;;;2.39;68.35
28921;BME280;16035;53.594;9.952;2024-03-08T02:55:29;102244.59;;;2.41;68.55
28921;BME280;16035;53.594;9.952;2024-03-08T02:57:30;102243.09;;;2.38;68.32
28921;BME280;16035;53.594;9.952;2024-03-08T02:59:30;102241.75;;;2.34;68.55
28921;BME280;16035;53.594;9.952;2024-03-08T03:01:31;102231.69;;;2.36;68.93
28921;BME280;16035;53.594;9.952;2024-03-08T03:03:32;102238.91;;;2.36;68.45
28921;BME280;16035;53.594;9.952;2024-03-08T03:05:33;102243.63;;;2.34;68.49
28921;BME280;16035;53.594;9.952;2024-03-08T03:07:36;102239.91;;;2.35;68.75
28921;BME280;16035;53.594;9.952;2024-03-08T03:09:37;102235.06;;;2.30;68.54
28921;BME280;16035;53.594;9.952;2024-03-08T03:11:37;102235.75;;;2.24;69.02
28921;BME280;16035;53.594;9.952;2024-03-08T03:13:38;102235.06;;;2.14;68.75
28921;BME280;16035;53.594;9.952;2024-03-08T03:15:38;102228.72;;;2.15;68.80
28921;BME280;16035;53.594;9.952;2024-03-08T03:17:45;102228.53;;;2.08;69.12
28921;BME280;16035;53.594;9.952;2024-03-08T03:19:46;102227.19;;;2.04;69.14
28921;BME280;16035;53.594;9.952;2024-03-08T03:21:46;102226.03;;;1.98;69.03
28921;BME280;16035;53.594;9.952;2024-03-08T03:23:47;102226.38;;;1.95;68.85
28921;BME280;16035;53.594;9.952;2024-03-08T03:25:48;102223.84;;;1.94;69.48
28921;BME280;16035;53.594;9.952;2024-03-08T03:27:49;102236.75;;;1.90;68.91
28921;BME280;16035;53.594;9.952;2024-03-08T03:29:49;102233.41;;;1.88;69.54
28921;BME280;16035;53.594;9.952;2024-03-08T03:31:52;102233.75;;;1.85;69.50
28921;BME280;16035;53.594;9.952;2024-03-08T03:33:52;102234.91;;;1.83;69.25
28921;BME280;16035;53.594;9.952;2024-03-08T03:35:52;102232.72;;;1.78;69.64
28921;BME280;16035;53.594;9.952;2024-03-08T03:37:53;102237.44;;;1.76;69.48
28921;BME280;16035;53.594;9.952;2024-03-08T03:40:07;102231.38;;;1.74;69.25
28921;BME280;16035;53.594;9.952;2024-03-08T03:42:08;102227.03;;;1.73;69.21
28921;BME280;16035;53.594;9.952;2024-03-08T03:44:08;102228.34;;;1.69;69.42
28921;BME280;16035;53.594;9.952;2024-03-08T03:46:10;102226.69;;;1.68;69.27
28921;BME280;16035;53.594;9.952;2024-03-08T03:48:10;102225.34;;;1.64;69.81
28921;BME280;16035;53.594;9.952;2024-03-08T03:50:11;102215.81;;;1.61;69.49
28921;BME280;16035;53.594;9.952;2024-03-08T03:52:11;102222.00;;;1.62;69.88
28921;BME280;16035;53.594;9.952;2024-03-08T03:54:12;102215.81;;;1.61;69.83
28921;BME280;16035;53.594;9.952;2024-03-08T03:56:13;102217.16;;;1.57;69.78
28921;BME280;16035;53.594;9.952;2024-03-08T03:58:13;102218.81;;;1.58;69.68
28921;BME280;16035;53.594;9.952;2024-03-08T04:00:14;102213.63;;;1.57;69.93
28921;BME280;16035;53.594;9.952;2024-03-08T04:02:14;102216.63;;;1.54;70.07
28921;BME280;16035;53.594;9.952;2024-03-08T04:04:15;102223.16;;;1.51;69.61
28921;BME280;16035;53.594;9.952;2024-03-08T04:06:16;102218.47;;;1.53;69.96
28921;BME280;16035;53.594;9.952;2024-03-08T04:08:16;102226.66;;;1.51;69.77
28921;BME280;16035;53.594;9.952;2024-03-08T04:10:17;102218.28;;;1.46;69.80
28921;BME280;16035;53.594;9.952;2024-03-08T04:12:17;102227.16;;;1.47;70.05
28921;BME280;16035;53.594;9.952;2024-03-08T04:14:17;102225.66;;;1.44;69.89
28921;BME280;16035;53.594;9.952;2024-03-08T04:16:18;102219.47;;;1.44;69.84
28921;BME280;16035;53.594;9.952;2024-03-08T04:18:19;102220.44;;;1.43;70.44
28921;BME280;16035;53.594;9.952;2024-03-08T04:20:19;102211.56;;;1.42;70.06
28921;BME280;16035;53.594;9.952;2024-03-08T04:22:20;102220.44;;;1.43;70.46
28921;BME280;16035;53.594;9.952;2024-03-08T04:24:20;102216.94;;;1.42;70.54
28921;BME280;16035;53.594;9.952;2024-03-08T04:26:20;102218.94;;;1.40;70.05
28921;BME280;16035;53.594;9.952;2024-03-08T04:28:21;102213.59;;;1.40;69.85
28921;BME280;16035;53.594;9.952;2024-03-08T04:30:21;102212.91;;;1.38;70.28
28921;BME280;16035;53.594;9.952;2024-03-08T04:32:22;102211.09;;;1.39;70.10
28921;BME280;16035;53.594;9.952;2024-03-08T04:34:22;102203.38;;;1.36;70.08
28921;BME280;16035;53.594;9.952;2024-03-08T04:36:23;102205.22;;;1.35;70.32
28921;BME280;16035;53.594;9.952;2024-03-08T04:38:25;102204.03;;;1.38;70.13
28921;BME280;16035;53.594;9.952;2024-03-08T04:40:25;102205.72;;;1.39;70.56
28921;BME280;16035;53.594;9.952;2024-03-08T04:42:29;102203.19;;;1.37;70.55
28921;BME280;16035;53.594;9.952;2024-03-08T04:44:30;102196.34;;;1.43;70.20
28921;BME280;16035;53.594;9.952;2024-03-08T04:46:31;102206.22;;;1.42;70.24
28921;BME280;16035;53.594;9.952;2024-03-08T04:48:32;102194.34;;;1.45;70.28
28921;BME280;16035;53.594;9.952;2024-03-08T04:50:32;102195.34;;;1.44;70.65
28921;BME280;16035;53.594;9.952;2024-03-08T04:52:32;102194.53;;;1.43;70.78
28921;BME280;16035;53.594;9.952;2024-03-08T04:54:32;102194.16;;;1.46;69.97
28921;BME280;16035;53.594;9.952;2024-03-08T04:56:33;102195.19;;;1.45;70.55
28921;BME280;16035;53.594;9.952;2024-03-08T04:58:36;102189.00;;;1.45;70.83
28921;BME280;16035;53.594;9.952;2024-03-08T05:00:36;102189.00;;;1.53;70.49
28921;BME280;16035;53.594;9.952;2024-03-08T05:02:37;102192.19;;;1.57;70.67
28921;BME280;16035;53.594;9.952;2024-03-08T05:04:41;102175.75;;;1.60;70.17
28921;BME280;16035;53.594;9.952;2024-03-08T05:06:42;102186.34;;;1.61;70.80
28921;BME280;16035;53.594;9.952;2024-03-08T05:08:42;102182.47;;;1.64;70.23
28921;BME280;16035;53.594;9.952;2024-03-08T05:10:43;102182.81;;;1.69;70.12
28921;BME280;16035;53.594;9.952;2024-03-08T05:12:44;102184.16;;;1.73;70.52
28921;BME280;16035;53.594;9.952;2024-03-08T05:14:47;102180.13;;;1.77;70.48
28921;BME280;16035;53.594;9.952;2024-03-08T05:16:49;102176.28;;;1.80;69.94
28921;BME280;16035;53.594;9.952;2024-03-08T05:18:50;102177.28;;;1.78;70.43
28921;BME280;16035;53.594;9.952;2024-03-08T05:20:51;102177.78;;;1.82;70.21
28921;BME280;16035;53.594;9.952;2024-03-08T05:22:51;102176.28;;;1.80;70.05
28921;BME280;16035;53.594;9.952;2024-03-08T05:24:52;102171.56;;;1.73;70.30
28921;BME280;16035;53.594;9.952;2024-03-08T05:26:52;102173.78;;;1.70;70.49
28921;BME280;16035;53.594;9.952;2024-03-08T05:28:52;102178.13;;;1.71;70.46
28921;BME280;16035;53.594;9.952;2024-03-08T05:30:53;102174.63;;;1.70;70.80
28921;BME280;16035;53.594;9.952;2024-03-08T05:32:56;102180.44;;;1.74;70.36
28921;BME280;16035;53.594;9.952;2024-03-08T05:34:57;102181.13;;;1.76;70.53
28921;BME280;16035;53.594;9.952;2024-03-08T05:36:58;102177.78;;;1.82;70.37
28921;BME280;16035;53.594;9.952;2024-03-08T05:38:58;102173.25;;;1.83;70.36
28921;BME280;16035;53.594;9.952;2024-03-08T05:40:59;102169.22;;;1.78;70.45
28921;BME280;16035;53.594;9.952;2024-03-08T05:42:59;102170.94;;;1.80;70.74
28921;BME280;16035;53.594;9.952;2024-03-08T05:44:59;102158.50;;;1.78;70.73
28921;BME280;16035;53.594;9.952;2024-03-08T05:47:00;102159.38;;;1.79;70.55
28921;BME280;16035;53.594;9.952;2024-03-08T05:49:00;102172.78;;;1.79;70.28
28921;BME280;16035;53.594;9.952;2024-03-08T05:51:05;102163.22;;;1.76;70.70
28921;BME280;16035;53.594;9.952;2024-03-08T05:53:05;102163.72;;;1.72;70.65
28921;BME280;16035;53.594;9.952;2024-03-08T05:55:09;102159.69;;;1.76;70.37
28921;BME280;16035;53.594;9.952;2024-03-08T05:57:09;102173.59;;;1.80;70.42
28921;BME280;16035;53.594;9.952;2024-03-08T05:59:12;102173.75;;;1.78;70.48
28921;BME280;16035;53.594;9.952;2024-03-08T06:01:12;102171.44;;;1.83;70.58
28921;BME280;16035;53.594;9.952;2024-03-08T06:03:12;102170.41;;;1.84;70.45
28921;BME280;16035;53.594;9.952;2024-03-08T06:05:13;102169.59;;;1.84;70.78
28921;BME280;16035;53.594;9.952;2024-03-08T06:07:13;102170.06;;;1.87;70.80
28921;BME280;16035;53.594;9.952;2024-03-08T06:09:14;102172.09;;;1.93;70.77
28921;BME280;16035;53.594;9.952;2024-03-08T06:11:21;102166.38;;;1.96;70.46
28921;BME280;16035;53.594;9.952;2024-03-08T06:13:21;102173.06;;;2.00;70.41
28921;BME280;16035;53.594;9.952;2024-03-08T06:15:22;102171.06;;;2.02;70.75
28921;BME280;16035;53.594;9.952;2024-03-08T06:17:22;102161.84;;;2.05;70.40
28921;BME280;16035;53.594;9.952;2024-03-08T06:19:25;102173.56;;;2.04;70.22
28921;BME280;16035;53.594;9.952;2024-03-08T06:21:26;102177.78;;;2.07;70.08
28921;BME280;16035;53.594;9.952;2024-03-08T06:23:27;102165.00;;;2.09;70.50
28921;BME280;16035;53.594;9.952;2024-03-08T06:25:27;102172.91;;;2.10;70.12
28921;BME280;16035;53.594;9.952;2024-03-08T06:27:27;102171.38;;;2.16;70.21
28921;BME280;16035;53.594;9.952;2024-03-08T06:29:28;102173.88;;;2.25;70.29
28921;BME280;16035;53.594;9.952;2024-03-08T06:31:28;102162.97;;;2.27;70.00
28921;BME280;16035;53.594;9.952;2024-03-08T06:33:29;102168.50;;;2.34;70.12
28921;BME280;16035;53.594;9.952;2024-03-08T06:35:30;102163.44;;;2.39;70.16
28921;BME280;16035;53.594;9.952;2024-03-08T06:37:32;102162.94;;;2.43;70.12
28921;BME280;16035;53.594;9.952;2024-03-08T06:39:33;102160.25;;;2.43;69.88
28921;BME280;16035;53.594;9.952;2024-03-08T06:41:36;102156.84;;;2.49;70.34
28921;BME280;16035;53.594;9.952;2024-03-08T06:43:36;102156.34;;;2.54;69.86
28921;BME280;16035;53.594;9.952;2024-03-08T06:45:37;102162.56;;;2.55;70.18
28921;BME280;16035;53.594;9.952;2024-03-08T06:47:38;102156.50;;;2.61;70.27
28921;BME280;16035;53.594;9.952;2024-03-08T06:49:38;102155.47;;;2.62;69.90
28921;BME280;16035;53.594;9.952;2024-03-08T06:51:39;102153.09;;;2.67;69.80
28921;BME280;16035;53.594;9.952;2024-03-08T06:53:41;102144.38;;;2.73;69.68
28921;BME280;16035;53.594;9.952;2024-03-08T06:55:41;102149.22;;;2.77;69.80
28921;BME280;16035;53.594;9.952;2024-03-08T06:57:42;102148.16;;;2.87;69.42
28921;BME280;16035;53.594;9.952;2024-03-08T06:59:42;102142.91;;;2.93;69.37
28921;BME280;16035;53.594;9.952;2024-03-08T07:01:43;102150.28;;;2.99;69.51
28921;BME280;16035;53.594;9.952;2024-03-08T07:03:43;102146.03;;;3.05;69.46
28921;BME280;16035;53.594;9.952;2024-03-08T07:05:46;102148.31;;;3.16;69.50
28921;BME280;16035;53.594;9.952;2024-03-08T07:07:46;102148.59;;;3.21;69.21
28921;BME280;16035;53.594;9.952;2024-03-08T07:09:49;102154.31;;;3.26;69.20
28921;BME280;16035;53.594;9.952;2024-03-08T07:11:50;102154.13;;;3.28;68.96
28921;BME280;16035;53.594;9.952;2024-03-08T07:13:54;102153.78;;;3.31;68.96
28921;BME280;16035;53.594;9.952;2024-03-08T07:15:55;102156.75;;;3.36;68.85
28921;BME280;16035;53.594;9.952;2024-03-08T07:17:55;102154.06;;;3.36;68.57
28921;BME280;16035;53.594;9.952;2024-03-08T07:19:55;102146.66;;;3.38;68.72
28921;BME280;16035;53.594;9.952;2024-03-08T07:21:57;102151.69;;;3.41;68.63
28921;BME280;16035;53.594;9.952;2024-03-08T07:23:57;102144.03;;;3.53;68.58
28921;BME280;16035;53.594;9.952;2024-03-08T07:26:00;102144.44;;;3.65;68.30
28921;BME280;16035;53.594;9.952;2024-03-08T07:28:01;102137.69;;;3.69;67.80
28921;BME280;16035;53.594;9.952;2024-03-08T07:30:02;102143.72;;;3.71;68.02
28921;BME280;16035;53.594;9.952;2024-03-08T07:32:03;102142.50;;;3.73;67.61
28921;BME280;16035;53.594;9.952;2024-03-08T07:34:21;102137.81;;;3.75;67.67
28921;BME280;16035;53.594;9.952;2024-03-08T07:36:21;102146.16;;;3.80;67.71
28921;BME280;16035;53.594;9.952;2024-03-08T07:38:24;102143.84;;;3.92;68.10
28921;BME280;16035;53.594;9.952;2024-03-08T07:40:25;102145.44;;;4.01;67.47
28921;BME280;16035;53.594;9.952;2024-03-08T07:42:25;102151.13;;;4.07;67.41
28921;BME280;16035;53.594;9.952;2024-03-08T07:44:26;102147.03;;;4.11;67.40
28921;BME280;16035;53.594;9.952;2024-03-08T07:46:26;102139.06;;;4.17;66.59
28921;BME280;16035;53.594;9.952;2024-03-08T07:48:26;102138.88;;;4.19;66.54
28921;BME280;16035;53.594;9.952;2024-03-08T07:50:27;102140.28;;;4.29;66.73
28921;BME280;16035;53.594;9.952;2024-03-08T07:52:27;102135.25;;;4.41;66.81
28921;BME280;16035;53.594;9.952;2024-03-08T07:54:28;102136.09;;;4.56;66.84
28921;BME280;16035;53.594;9.952;2024-03-08T07:56:28;102139.22;;;4.75;65.90
28921;BME280;16035;53.594;9.952;2024-03-08T07:58:28;102133.28;;;4.79;66.29
28921;BME280;16035;53.594;9.952;2024-03-08T08:00:29;102132.59;;;4.92;66.23
28921;BME280;16035;53.594;9.952;2024-03-08T08:02:31;102137.47;;;5.03;65.65
28921;BME280;16035;53.594;9.952;2024-03-08T08:04:31;102136.28;;;5.06;65.68
28921;BME280;16035;53.594;9.952;2024-03-08T08:06:32;102138.88;;;5.14;65.62
28921;BME280;16035;53.594;9.952;2024-03-08T08:08:33;102143.78;;;5.11;64.85
28921;BME280;16035;53.594;9.952;2024-03-08T08:10:33;102135.91;;;5.09;64.16
28921;BME280;16035;53.594;9.952;2024-03-08T08:12:34;102130.97;;;5.55;64.64
28921;BME280;16035;53.594;9.952;2024-03-08T08:14:34;102126.09;;;6.56;65.46
28921;BME280;16035;53.594;9.952;2024-03-08T08:16:34;102128.84;;;7.57;64.54
28921;BME280;16035;53.594;9.952;2024-03-08T08:18:36;102121.13;;;8.07;63.63
28921;BME280;16035;53.594;9.952;2024-03-08T08:20:37;102120.53;;;8.77;62.91
28921;BME280;16035;53.594;9.952;2024-03-08T08:22:41;102118.13;;;9.39;61.56
28921;BME280;16035;53.594;9.952;2024-03-08T08:24:43;102114.59;;;9.88;61.89
28921;BME280;16035;53.594;9.952;2024-03-08T08:26:43;102104.72;;;10.37;61.10
28921;BME280;16035;53.594;9.952;2024-03-08T08:28:44;102113.75;;;10.86;60.50
28921;BME280;16035;53.594;9.952;2024-03-08T08:30:46;102109.19;;;11.40;60.77
28921;BME280;16035;53.594;9.952;2024-03-08T08:32:46;102107.44;;;11.69;58.29
28921;BME280;16035;53.594;9.952;2024-03-08T08:34:47;102109.66;;;11.37;57.53
28921;BME280;16035;53.594;9.952;2024-03-08T08:36:48;102104.03;;;11.20;58.17
28921;BME280;16035;53.594;9.952;2024-03-08T08:38:48;102105.09;;;11.61;59.28
28921;BME280;16035;53.594;9.952;2024-03-08T08:40:48;102104.03;;;12.44;59.62
28921;BME280;16035;53.594;9.952;2024-03-08T08:42:50;102093.69;;;13.15;57.16
28921;BME280;16035;53.594;9.952;2024-03-08T08:44:51;102095.91;;;13.47;55.58
28921;BME280;16035;53.594;9.952;2024-03-08T08:46:52;102091.84;;;13.66;55.79
28921;BME280;16035;53.594;9.952;2024-03-08T08:48:53;102095.31;;;13.95;54.91
28921;BME280;16035;53.594;9.952;2024-03-08T08:50:53;102099.88;;;13.89;54.23
28921;BME280;16035;53.594;9.952;2024-03-08T08:52:55;102094.09;;;13.69;53.72
28921;BME280;16035;53.594;9.952;2024-03-08T08:54:56;102092.91;;;13.99;52.79
28921;BME280;16035;53.594;9.952;2024-03-08T08:56:56;102079.94;;;13.89;51.64
28921;BME280;16035;53.594;9.952;2024-03-08T08:58:57;102086.28;;;14.11;50.84
28921;BME280;16035;53.594;9.952;2024-03-08T09:00:58;102077.22;;;14.50;51.43
28921;BME280;16035;53.594;9.952;2024-03-08T09:02:59;102079.00;;;15.10;50.82
28921;BME280;16035;53.594;9.952;2024-03-08T09:05:00;102076.81;;;15.12;50.25
28921;BME280;16035;53.594;9.952;2024-03-08T09:07:01;102071.91;;;14.60;47.32
28921;BME280;16035;53.594;9.952;2024-03-08T09:09:01;102064.44;;;13.95;48.48
28921;BME280;16035;53.594;9.952;2024-03-08T09:11:04;102077.19;;;13.22;48.41
28921;BME280;16035;53.594;9.952;2024-03-08T09:13:05;102069.81;;;12.25;43.57
28921;BME280;16035;53.594;9.952;2024-03-08T09:15:07;102059.38;;;12.22;50.23
28921;BME280;16035;53.594;9.952;2024-03-08T09:17:13;102067.75;;;12.44;49.63
28921;BME280;16035;53.594;9.952;2024-03-08T09:19:17;102058.34;;;12.92;47.49
28921;BME280;16035;53.594;9.952;2024-03-08T09:21:19;102063.84;;;12.80;48.21
28921;BME280;16035;53.594;9.952;2024-03-08T09:23:19;102064.81;;;12.33;47.89
28921;BME280;16035;53.594;9.952;2024-03-08T09:25:20;102063.94;;;12.56;48.64
28921;BME280;16035;53.594;9.952;2024-03-08T09:27:20;102062.47;;;12.94;47.28
28921;BME280;16035;53.594;9.952;2024-03-08T09:29:21;102053.72;;;12.92;46.54
28921;BME280;16035;53.594;9.952;2024-03-08T09:31:21;102057.28;;;12.64;45.05
28921;BME280;16035;53.594;9.952;2024-03-08T09:33:22;102044.47;;;12.24;46.19
28921;BME280;16035;53.594;9.952;2024-03-08T09:35:22;102040.38;;;12.38;46.38
28921;BME280;16035;53.594;9.952;2024-03-08T09:37:23;102034.50;;;12.58;46.39
28921;BME280;16035;53.594;9.952;2024-03-08T09:39:23;102039.47;;;13.52;47.37
28921;BME280;16035;53.594;9.952;2024-03-08T09:41:23;102024.84;;;14.63;46.24
28921;BME280;16035;53.594;9.952;2024-03-08T09:43:24;102020.25;;;15.60;45.70
28921;BME280;16035;53.594;9.952;2024-03-08T09:45:24;102026.97;;;16.32;43.06
28921;BME280;16035;53.594;9.952;2024-03-08T09:47:28;102019.06;;;16.46;42.89
28921;BME280;16035;53.594;9.952;2024-03-08T09:49:34;102022.91;;;16.50;42.76
28921;BME280;16035;53.594;9.952;2024-03-08T09:51:35;102017.13;;;16.36;43.33
28921;BME280;16035;53.594;9.952;2024-03-08T09:53:40;102009.94;;;16.25;41.07
28921;BME280;16035;53.594;9.952;2024-03-08T09:55:42;102005.66;;;15.17;40.53
28921;BME280;16035;53.594;9.952;2024-03-08T09:57:44;102012.66;;;15.35;41.42
28921;BME280;16035;53.594;9.952;2024-03-08T10:00:07;102000.06;;;16.29;41.06
28921;BME280;16035;53.594;9.952;2024-03-08T10:02:18;101993.13;;;17.09;40.36
28921;BME280;16035;53.594;9.952;2024-03-08T10:04:18;101983.47;;;17.58;39.21
28921;BME280;16035;53.594;9.952;2024-03-08T10:06:22;101985.53;;;18.12;37.16
28921;BME280;16035;53.594;9.952;2024-03-08T10:08:23;101981.41;;;18.69;39.47
28921;BME280;16035;53.594;9.952;2024-03-08T10:10:23;101973.00;;;18.45;39.49
28921;BME280;16035;53.594;9.952;2024-03-08T10:12:24;101968.78;;;18.58;39.57
28921;BME280;16035;53.594;9.952;2024-03-08T10:14:24;101964.91;;;18.14;32.74
28921;BME280;16035;53.594;9.952;2024-03-08T10:16:29;101967.19;;;17.92;37.58
28921;BME280;16035;53.594;9.952;2024-03-08T10:18:30;101970.59;;;17.23;38.96
28921;BME280;16035;53.594;9.952;2024-03-08T10:20:31;101972.63;;;16.24;37.21
28921;BME280;16035;53.594;9.952;2024-03-08T10:22:34;101957.38;;;15.38;39.25
28921;BME280;16035;53.594;9.952;2024-03-08T10:24:35;101968.50;;;14.94;40.12
28921;BME280;16035;53.594;9.952;2024-03-08T10:26:36;101958.56;;;14.83;38.88
28921;BME280;16035;53.594;9.952;2024-03-08T10:28:37;101955.34;;;14.37;39.17
28921;BME280;16035;53.594;9.952;2024-03-08T10:30:38;101961.88;;;13.70;35.75
28921;BME280;16035;53.594;9.952;2024-03-08T10:32:38;101955.72;;;14.24;38.93
28921;BME280;16035;53.594;9.952;2024-03-08T10:34:39;101955.38;;;14.64;38.73
28921;BME280;16035;53.594;9.952;2024-03-08T10:36:42;101951.44;;;14.33;37.48
28921;BME280;16035;53.594;9.952;2024-03-08T10:38:43;101937.06;;;13.72;38.06